createdAt,value
2019-06-04T00:01:14.416Z,995.23
2019-06-04T00:01:59.856Z,995.24
2019-06-04T00:02:58.164Z,995.14
2019-06-04T00:03:59.630Z,995.10
2019-06-04T00:04:58.261Z,995.02
2019-06-04T00:05:58.203Z,995.02
2019-06-04T00:06:58.279Z,995.05
2019-06-04T00:07:57.990Z,995.06
2019-06-04T00:08:58.508Z,995.11
2019-06-04T00:09:57.894Z,995.10
2019-06-04T00:10:58.531Z,995.11
2019-06-04T00:11:57.910Z,995.12
2019-06-04T00:12:57.913Z,995.03
2019-06-04T00:13:59.010Z,995.09
2019-06-04T00:14:57.968Z,995.06
2019-06-04T00:15:59.014Z,995.07
2019-06-04T00:16:58.411Z,995.12
2019-06-04T00:17:57.830Z,995.13
2019-06-04T00:18:59.131Z,995.11
2019-06-04T00:19:59.042Z,995.19
2019-06-04T00:20:59.035Z,995.19
2019-06-04T00:21:57.782Z,995.20
2019-06-04T00:22:58.432Z,995.19
2019-06-04T00:23:58.533Z,995.20
2019-06-04T00:24:58.583Z,995.19
2019-06-04T00:25:58.883Z,995.18
2019-06-04T00:26:58.781Z,995.18
2019-06-04T00:27:58.947Z,995.13
2019-06-04T00:28:57.973Z,995.15
2019-06-04T00:29:58.056Z,995.15
2019-06-04T00:30:58.828Z,995.11
2019-06-04T00:31:57.927Z,995.10
2019-06-04T00:32:57.930Z,995.06
2019-06-04T00:33:58.188Z,995.04
2019-06-04T00:34:58.029Z,995.03
2019-06-04T00:35:58.260Z,995.09
2019-06-04T00:36:58.070Z,995.04
2019-06-04T00:37:58.542Z,995.03
2019-06-04T00:38:58.392Z,994.98
2019-06-04T00:39:58.572Z,994.97
2019-06-04T00:40:58.774Z,995.01
2019-06-04T00:41:58.691Z,995.00
2019-06-04T00:42:58.569Z,995.01
2019-06-04T00:43:58.663Z,994.97
2019-06-04T00:44:58.913Z,994.99
2019-06-04T00:45:58.517Z,995.01
2019-06-04T00:46:58.810Z,994.96
2019-06-04T00:47:58.921Z,994.95
2019-06-04T00:48:58.830Z,994.98
2019-06-04T00:49:58.624Z,994.93
2019-06-04T00:50:57.444Z,995.00
2019-06-04T00:51:57.419Z,994.95
2019-06-04T00:52:57.415Z,994.95
2019-06-04T00:53:57.398Z,994.96
2019-06-04T00:54:57.513Z,994.98
2019-06-04T00:55:58.144Z,994.95
2019-06-04T00:56:57.374Z,994.99
2019-06-04T00:57:58.334Z,994.92
2019-06-04T00:58:57.365Z,994.94
2019-06-04T00:59:58.414Z,994.91
2019-06-04T01:00:57.723Z,994.91
2019-06-04T01:01:58.793Z,994.92
2019-06-04T01:02:57.708Z,994.91
2019-06-04T01:03:57.285Z,994.90
2019-06-04T01:04:57.942Z,994.88
2019-06-04T01:05:57.271Z,994.87
2019-06-04T01:06:57.332Z,994.84
2019-06-04T01:07:57.355Z,994.84
2019-06-04T01:08:57.319Z,994.83
2019-06-04T01:09:57.499Z,994.80
2019-06-04T01:10:58.593Z,994.80
2019-06-04T01:11:57.596Z,994.77
2019-06-04T01:12:59.214Z,994.74
2019-06-04T01:13:57.942Z,994.74
2019-06-04T01:14:58.004Z,994.70
2019-06-04T01:15:58.023Z,994.74
2019-06-04T01:16:58.326Z,994.78
2019-06-04T01:17:58.407Z,994.76
2019-06-04T01:18:58.489Z,994.73
2019-06-04T01:19:58.482Z,994.73
2019-06-04T01:20:57.100Z,994.76
2019-06-04T01:21:57.077Z,994.77
2019-06-04T01:22:57.066Z,994.73
2019-06-04T01:23:57.064Z,994.69
2019-06-04T01:24:57.101Z,994.67
2019-06-04T01:25:57.041Z,994.66
2019-06-04T01:26:57.023Z,994.65
2019-06-04T01:27:57.012Z,994.66
2019-06-04T01:28:57.004Z,994.63
2019-06-04T01:29:57.047Z,994.64
2019-06-04T01:30:57.011Z,994.65
2019-06-04T01:32:11.053Z,994.66
2019-06-04T01:32:58.859Z,994.65
2019-06-04T01:33:56.973Z,994.67
2019-06-04T01:34:56.979Z,994.62
2019-06-04T01:35:56.930Z,994.66
2019-06-04T01:36:56.966Z,994.64
2019-06-04T01:37:56.901Z,994.63
2019-06-04T01:38:56.898Z,994.67
2019-06-04T01:39:57.537Z,994.62
2019-06-04T01:40:56.886Z,994.63
2019-06-04T01:41:56.903Z,994.58
2019-06-04T01:42:56.880Z,994.58
2019-06-04T01:43:56.858Z,994.54
2019-06-04T01:44:56.822Z,994.54
2019-06-04T01:45:56.801Z,994.61
2019-06-04T01:46:56.792Z,994.61
2019-06-04T01:47:56.775Z,994.63
2019-06-04T01:48:56.828Z,994.59
2019-06-04T01:49:56.782Z,994.58
2019-06-04T01:50:56.761Z,994.56
2019-06-04T01:51:56.735Z,994.55
2019-06-04T01:52:56.740Z,994.52
2019-06-04T01:53:56.725Z,994.54
2019-06-04T01:54:56.749Z,994.51
2019-06-04T01:55:56.707Z,994.51
2019-06-04T01:56:56.692Z,994.50
2019-06-04T01:57:56.670Z,994.47
2019-06-04T01:58:56.680Z,994.46
2019-06-04T01:59:56.677Z,994.49
2019-06-04T02:00:56.708Z,994.46
2019-06-04T02:01:56.689Z,994.44
2019-06-04T02:02:56.631Z,994.43
2019-06-04T02:03:56.613Z,994.45
2019-06-04T02:04:56.618Z,994.44
2019-06-04T02:05:56.599Z,994.42
2019-06-04T02:06:56.626Z,994.42
2019-06-04T02:07:56.566Z,994.40
2019-06-04T02:08:56.568Z,994.38
2019-06-04T02:09:56.544Z,994.37
2019-06-04T02:10:56.541Z,994.35
2019-06-04T02:11:56.526Z,994.34
2019-06-04T02:12:56.569Z,994.35
2019-06-04T02:13:56.491Z,994.38
2019-06-04T02:14:56.488Z,994.35
2019-06-04T02:15:56.487Z,994.35
2019-06-04T02:16:56.467Z,994.33
2019-06-04T02:17:56.453Z,994.30
2019-06-04T02:18:56.488Z,994.33
2019-06-04T02:19:56.465Z,994.32
2019-06-04T02:20:56.438Z,994.33
2019-06-04T02:21:56.411Z,994.30
2019-06-04T02:22:56.408Z,994.32
2019-06-04T02:23:56.473Z,994.33
2019-06-04T02:24:56.403Z,994.31
2019-06-04T02:25:56.365Z,994.25
2019-06-04T02:26:56.346Z,994.23
2019-06-04T02:27:56.351Z,994.21
2019-06-04T02:28:56.323Z,994.23
2019-06-04T02:29:56.307Z,994.18
2019-06-04T02:30:56.356Z,994.21
2019-06-04T02:31:56.282Z,994.22
2019-06-04T02:33:07.802Z,994.14
2019-06-04T02:33:57.282Z,994.19
2019-06-04T02:34:56.275Z,994.19
2019-06-04T02:35:56.254Z,994.18
2019-06-04T02:36:56.301Z,994.16
2019-06-04T02:37:56.223Z,994.19
2019-06-04T02:38:56.211Z,994.19
2019-06-04T02:39:56.217Z,994.20
2019-06-04T02:40:56.213Z,994.19
2019-06-04T02:41:56.195Z,994.20
2019-06-04T02:42:56.216Z,994.15
2019-06-04T02:43:56.159Z,994.16
2019-06-04T02:44:56.154Z,994.13
2019-06-04T02:45:56.133Z,994.16
2019-06-04T02:46:56.137Z,994.17
2019-06-04T02:47:56.149Z,994.20
2019-06-04T02:48:56.138Z,994.23
2019-06-04T02:49:56.099Z,994.23
2019-06-04T02:50:56.095Z,994.15
2019-06-04T02:51:56.075Z,994.18
2019-06-04T02:52:56.065Z,994.09
2019-06-04T02:53:56.043Z,994.15
2019-06-04T02:54:56.108Z,994.13
2019-06-04T02:55:56.045Z,994.11
2019-06-04T02:56:56.010Z,994.14
2019-06-04T02:57:56.016Z,994.00
2019-06-04T02:58:55.988Z,994.06
2019-06-04T02:59:55.974Z,994.07
2019-06-04T03:00:56.018Z,993.96
2019-06-04T03:01:55.948Z,994.00
2019-06-04T03:02:55.950Z,993.96
2019-06-04T03:03:55.928Z,993.99
2019-06-04T03:04:55.911Z,994.04
2019-06-04T03:05:55.924Z,994.00
2019-06-04T03:06:56.074Z,993.95
2019-06-04T03:07:55.880Z,993.93
2019-06-04T03:08:55.872Z,993.94
2019-06-04T03:09:55.854Z,993.90
2019-06-04T03:10:55.860Z,993.90
2019-06-04T03:11:55.837Z,993.85
2019-06-04T03:12:55.860Z,993.84
2019-06-04T03:13:55.828Z,993.85
2019-06-04T03:14:55.801Z,993.90
2019-06-04T03:15:55.789Z,993.87
2019-06-04T03:16:55.810Z,993.93
2019-06-04T03:17:55.770Z,993.92
2019-06-04T03:18:56.551Z,993.86
2019-06-04T03:19:55.744Z,993.92
2019-06-04T03:20:55.738Z,993.89
2019-06-04T03:21:55.732Z,993.87
2019-06-04T03:22:55.724Z,993.83
2019-06-04T03:23:55.730Z,993.85
2019-06-04T03:24:55.750Z,993.87
2019-06-04T03:25:55.690Z,993.87
2019-06-04T03:26:55.678Z,993.84
2019-06-04T03:27:55.658Z,993.87
2019-06-04T03:28:55.650Z,993.89
2019-06-04T03:29:55.649Z,993.90
2019-06-04T03:30:55.685Z,993.93
2019-06-04T03:31:55.625Z,993.93
2019-06-04T03:32:55.627Z,993.89
2019-06-04T03:33:58.640Z,993.95
2019-06-04T03:34:55.579Z,993.97
2019-06-04T03:35:55.564Z,993.94
2019-06-04T03:36:55.611Z,994.02
2019-06-04T03:37:55.581Z,994.05
2019-06-04T03:38:55.544Z,994.08
2019-06-04T03:39:55.527Z,994.05
2019-06-04T03:40:55.517Z,993.99
2019-06-04T03:41:55.498Z,994.03
2019-06-04T03:42:55.531Z,994.02
2019-06-04T03:43:55.473Z,994.03
2019-06-04T03:44:55.481Z,993.97
2019-06-04T03:45:55.451Z,993.96
2019-06-04T03:46:55.446Z,993.94
2019-06-04T03:47:55.433Z,993.91
2019-06-04T03:48:55.478Z,993.89
2019-06-04T03:49:55.421Z,993.86
2019-06-04T03:50:55.412Z,993.91
2019-06-04T03:51:55.393Z,993.87
2019-06-04T03:52:55.369Z,993.86
2019-06-04T03:53:55.375Z,993.87
2019-06-04T03:54:55.395Z,993.90
2019-06-04T03:55:55.337Z,993.93
2019-06-04T03:56:55.328Z,993.93
2019-06-04T03:57:55.313Z,993.92
2019-06-04T03:58:55.463Z,993.93
2019-06-04T03:59:55.328Z,993.95
2019-06-04T04:00:55.332Z,993.92
2019-06-04T04:01:55.363Z,993.96
2019-06-04T04:02:55.364Z,993.97
2019-06-04T04:04:07.137Z,993.96
2019-06-04T04:04:56.234Z,993.93
2019-06-04T04:05:55.214Z,993.88
2019-06-04T04:06:55.252Z,993.88
2019-06-04T04:07:55.196Z,993.90
2019-06-04T04:08:55.261Z,993.96
2019-06-04T04:09:55.168Z,993.97
2019-06-04T04:10:55.164Z,993.96
2019-06-04T04:11:55.169Z,993.99
2019-06-04T04:12:55.437Z,993.99
2019-06-04T04:13:55.163Z,994.03
2019-06-04T04:14:55.116Z,994.01
2019-06-04T04:15:55.122Z,993.98
2019-06-04T04:16:55.091Z,994.00
2019-06-04T04:17:55.091Z,994.01
2019-06-04T04:18:55.117Z,994.02
2019-06-04T04:19:55.054Z,994.01
2019-06-04T04:20:55.147Z,994.10
2019-06-04T04:21:55.036Z,994.10
2019-06-04T04:22:55.040Z,994.09
2019-06-04T04:23:55.024Z,994.02
2019-06-04T04:24:55.064Z,993.97
2019-06-04T04:25:54.992Z,993.96
2019-06-04T04:26:54.978Z,993.96
2019-06-04T04:27:55.010Z,993.97
2019-06-04T04:28:54.963Z,993.98
2019-06-04T04:29:54.967Z,993.97
2019-06-04T04:30:54.979Z,993.96
2019-06-04T04:31:54.919Z,993.91
2019-06-04T04:32:54.935Z,993.89
2019-06-04T04:33:54.898Z,993.81
2019-06-04T04:34:54.884Z,993.86
2019-06-04T04:35:54.906Z,993.78
2019-06-04T04:36:54.918Z,993.76
2019-06-04T04:37:54.869Z,993.81
2019-06-04T04:38:54.845Z,993.77
2019-06-04T04:39:54.840Z,993.80
2019-06-04T04:40:54.835Z,993.71
2019-06-04T04:41:54.834Z,993.76
2019-06-04T04:42:54.852Z,993.79
2019-06-04T04:43:54.794Z,993.74
2019-06-04T04:44:54.819Z,993.76
2019-06-04T04:45:54.771Z,993.83
2019-06-04T04:46:54.766Z,993.84
2019-06-04T04:47:54.750Z,993.83
2019-06-04T04:48:54.788Z,993.85
2019-06-04T04:49:54.717Z,993.92
2019-06-04T04:50:54.704Z,993.89
2019-06-04T04:51:54.697Z,993.92
2019-06-04T04:52:54.687Z,993.92
2019-06-04T04:53:54.671Z,993.90
2019-06-04T04:54:54.744Z,993.88
2019-06-04T04:55:54.649Z,993.88
2019-06-04T04:56:54.644Z,993.91
2019-06-04T04:57:54.658Z,993.88
2019-06-04T04:58:54.636Z,993.89
2019-06-04T04:59:54.608Z,993.82
2019-06-04T05:00:54.642Z,993.79
2019-06-04T05:01:54.591Z,993.81
2019-06-04T05:02:54.573Z,993.82
2019-06-04T05:03:54.562Z,993.82
2019-06-04T05:04:54.557Z,993.80
2019-06-04T05:05:54.556Z,993.80
2019-06-04T05:06:54.581Z,993.78
2019-06-04T05:07:54.548Z,993.74
2019-06-04T05:08:54.509Z,993.75
2019-06-04T05:09:54.548Z,993.79
2019-06-04T05:10:54.483Z,993.80
2019-06-04T05:11:54.504Z,993.77
2019-06-04T05:12:54.495Z,993.75
2019-06-04T05:13:54.463Z,993.79
2019-06-04T05:14:54.461Z,993.78
2019-06-04T05:15:54.433Z,993.80
2019-06-04T05:16:54.426Z,993.80
2019-06-04T05:17:54.405Z,993.79
2019-06-04T05:18:54.433Z,993.84
2019-06-04T05:19:54.381Z,993.84
2019-06-04T05:20:54.412Z,993.86
2019-06-04T05:21:54.360Z,993.83
2019-06-04T05:22:54.356Z,993.87
2019-06-04T05:23:54.346Z,993.85
2019-06-04T05:24:54.369Z,993.83
2019-06-04T05:25:54.322Z,993.84
2019-06-04T05:26:54.352Z,993.87
2019-06-04T05:27:54.302Z,993.84
2019-06-04T05:28:54.300Z,993.82
2019-06-04T05:29:54.281Z,993.84
2019-06-04T05:30:54.293Z,993.87
2019-06-04T05:31:54.256Z,993.88
2019-06-04T05:32:54.264Z,993.87
2019-06-04T05:33:54.232Z,993.87
2019-06-04T05:35:04.452Z,993.83
2019-06-04T05:35:55.245Z,993.82
2019-06-04T05:36:54.197Z,993.79
2019-06-04T05:37:54.187Z,993.79
2019-06-04T05:38:54.176Z,993.74
2019-06-04T05:39:54.210Z,993.73
2019-06-04T05:40:54.149Z,993.74
2019-06-04T05:41:54.193Z,993.71
2019-06-04T05:42:54.155Z,993.74
2019-06-04T05:43:56.927Z,993.75
2019-06-04T05:44:54.113Z,993.78
2019-06-04T05:45:54.190Z,993.77
2019-06-04T05:46:54.096Z,993.76
2019-06-04T05:47:54.111Z,993.73
2019-06-04T05:48:54.060Z,993.72
2019-06-04T05:49:54.054Z,993.71
2019-06-04T05:50:54.040Z,993.75
2019-06-04T05:51:54.072Z,993.68
2019-06-04T05:52:54.018Z,993.68
2019-06-04T05:53:54.058Z,993.69
2019-06-04T05:54:54.027Z,993.69
2019-06-04T05:55:54.008Z,993.71
2019-06-04T05:56:53.975Z,993.69
2019-06-04T05:57:53.966Z,993.73
2019-06-04T05:58:53.981Z,993.77
2019-06-04T05:59:53.982Z,993.80
2019-06-04T06:00:53.928Z,993.78
2019-06-04T06:01:53.918Z,993.81
2019-06-04T06:02:53.904Z,993.85
2019-06-04T06:03:53.905Z,993.76
2019-06-04T06:04:53.899Z,993.78
2019-06-04T06:05:53.904Z,993.76
2019-06-04T06:06:53.861Z,993.73
2019-06-04T06:07:53.929Z,993.70
2019-06-04T06:08:53.845Z,993.70
2019-06-04T06:09:53.844Z,993.66
2019-06-04T06:10:53.930Z,993.68
2019-06-04T06:11:54.050Z,993.69
2019-06-04T06:12:53.795Z,993.69
2019-06-04T06:13:53.784Z,993.69
2019-06-04T06:14:53.786Z,993.71
2019-06-04T06:15:53.766Z,993.72
2019-06-04T06:16:53.783Z,993.77
2019-06-04T06:17:53.776Z,993.75
2019-06-04T06:18:53.745Z,993.77
2019-06-04T06:19:53.720Z,993.79
2019-06-04T06:20:53.714Z,993.74
2019-06-04T06:21:53.696Z,993.77
2019-06-04T06:23:09.939Z,993.73
2019-06-04T06:23:54.699Z,993.70
2019-06-04T06:24:53.664Z,993.70
2019-06-04T06:25:53.650Z,993.67
2019-06-04T06:26:53.641Z,993.61
2019-06-04T06:27:53.655Z,993.63
2019-06-04T06:28:53.634Z,993.59
2019-06-04T06:29:53.642Z,993.58
2019-06-04T06:30:53.595Z,993.61
2019-06-04T06:31:53.589Z,993.64
2019-06-04T06:32:53.594Z,993.60
2019-06-04T06:33:53.565Z,993.63
2019-06-04T06:34:53.578Z,993.66
2019-06-04T06:35:53.586Z,993.63
2019-06-04T06:36:53.525Z,993.68
2019-06-04T06:37:53.539Z,993.70
2019-06-04T06:38:55.820Z,993.61
2019-06-04T06:39:53.493Z,993.66
2019-06-04T06:40:53.503Z,993.65
2019-06-04T06:41:53.516Z,993.60
2019-06-04T06:42:53.460Z,993.53
2019-06-04T06:43:53.448Z,993.53
2019-06-04T06:44:53.435Z,993.47
2019-06-04T06:45:53.425Z,993.42
2019-06-04T06:46:53.435Z,993.41
2019-06-04T06:47:53.449Z,993.45
2019-06-04T06:48:53.398Z,993.43
2019-06-04T06:49:53.457Z,993.44
2019-06-04T06:50:53.369Z,993.40
2019-06-04T06:51:53.369Z,993.39
2019-06-04T06:52:53.382Z,993.35
2019-06-04T06:53:53.386Z,993.30
2019-06-04T06:54:53.322Z,993.29
2019-06-04T06:55:53.313Z,993.32
2019-06-04T06:56:53.302Z,993.32
2019-06-04T06:57:53.291Z,993.32
2019-06-04T06:58:53.296Z,993.31
2019-06-04T06:59:53.331Z,993.30
2019-06-04T07:00:53.261Z,993.34
2019-06-04T07:01:53.248Z,993.30
2019-06-04T07:02:53.236Z,993.38
2019-06-04T07:03:53.236Z,993.33
2019-06-04T07:04:53.253Z,993.30
2019-06-04T07:05:59.979Z,993.31
2019-06-04T07:06:54.192Z,993.30
2019-06-04T07:07:53.266Z,993.32
2019-06-04T07:08:53.168Z,993.36
2019-06-04T07:09:53.160Z,993.39
2019-06-04T07:10:53.163Z,993.36
2019-06-04T07:11:53.186Z,993.32
2019-06-04T07:12:53.128Z,993.33
2019-06-04T07:13:53.114Z,993.32
2019-06-04T07:14:53.103Z,993.28
2019-06-04T07:15:53.097Z,993.29
2019-06-04T07:16:53.097Z,993.37
2019-06-04T07:17:53.149Z,993.34
2019-06-04T07:18:53.061Z,993.36
2019-06-04T07:19:53.050Z,993.37
2019-06-04T07:20:53.046Z,993.29
2019-06-04T07:21:53.026Z,993.28
2019-06-04T07:22:53.033Z,993.20
2019-06-04T07:23:53.040Z,993.22
2019-06-04T07:24:53.019Z,993.14
2019-06-04T07:25:53.425Z,993.10
2019-06-04T07:26:52.971Z,993.13
2019-06-04T07:27:53.033Z,993.11
2019-06-04T07:28:52.953Z,993.10
2019-06-04T07:29:52.974Z,993.08
2019-06-04T07:30:52.927Z,993.12
2019-06-04T07:31:52.919Z,993.13
2019-06-04T07:32:52.935Z,993.11
2019-06-04T07:33:52.893Z,993.11
2019-06-04T07:34:52.900Z,993.19
2019-06-04T07:35:52.900Z,993.16
2019-06-04T07:36:52.865Z,993.16
2019-06-04T07:37:52.876Z,993.24
2019-06-04T07:38:52.843Z,993.23
2019-06-04T07:40:05.066Z,993.24
2019-06-04T07:40:53.879Z,993.29
2019-06-04T07:41:52.819Z,993.29
2019-06-04T07:42:52.801Z,993.25
2019-06-04T07:43:52.782Z,993.29
2019-06-04T07:44:52.769Z,993.29
2019-06-04T07:45:52.759Z,993.22
2019-06-04T07:46:52.834Z,993.17
2019-06-04T07:47:52.792Z,993.18
2019-06-04T07:48:52.731Z,993.14
2019-06-04T07:49:52.716Z,993.14
2019-06-04T07:50:52.704Z,993.19
2019-06-04T07:51:52.692Z,993.07
2019-06-04T07:52:52.761Z,993.11
2019-06-04T07:53:52.675Z,993.08
2019-06-04T07:54:52.664Z,993.07
2019-06-04T07:55:52.658Z,993.06
2019-06-04T07:56:52.637Z,993.07
2019-06-04T07:57:57.779Z,993.09
2019-06-04T07:58:53.665Z,993.06
2019-06-04T07:59:52.605Z,993.01
2019-06-04T08:00:52.592Z,992.96
2019-06-04T08:02:07.043Z,992.95
2019-06-04T08:02:53.567Z,992.95
2019-06-04T08:03:52.558Z,993.03
2019-06-04T08:04:52.605Z,993.09
2019-06-04T08:05:52.542Z,993.04
2019-06-04T08:06:58.077Z,992.99
2019-06-04T08:07:53.510Z,993.00
2019-06-04T08:08:52.501Z,993.04
2019-06-04T08:09:52.492Z,993.06
2019-06-04T08:10:52.537Z,993.01
2019-06-04T08:11:52.464Z,993.00
2019-06-04T08:12:52.453Z,993.00
2019-06-04T08:13:52.544Z,993.00
2019-06-04T08:14:52.442Z,993.02
2019-06-04T08:15:52.424Z,993.03
2019-06-04T08:16:52.475Z,993.05
2019-06-04T08:17:52.514Z,993.03
2019-06-04T08:18:52.385Z,992.97
2019-06-04T08:19:52.374Z,992.97
2019-06-04T08:20:52.364Z,992.93
2019-06-04T08:21:57.921Z,992.93
2019-06-04T08:22:53.401Z,992.91
2019-06-04T08:23:52.351Z,992.92
2019-06-04T08:24:52.319Z,992.90
2019-06-04T08:25:52.320Z,992.87
2019-06-04T08:26:52.298Z,992.83
2019-06-04T08:27:52.319Z,992.91
2019-06-04T08:28:52.314Z,992.87
2019-06-04T08:29:52.262Z,992.89
2019-06-04T08:30:52.254Z,992.87
2019-06-04T08:31:52.240Z,992.86
2019-06-04T08:32:52.229Z,992.84
2019-06-04T08:33:52.223Z,992.87
2019-06-04T08:34:52.256Z,992.79
2019-06-04T08:35:52.201Z,992.80
2019-06-04T08:37:06.969Z,992.77
2019-06-04T08:37:53.282Z,992.82
2019-06-04T08:38:57.348Z,992.79
2019-06-04T08:39:53.205Z,992.84
2019-06-04T08:40:52.154Z,992.83
2019-06-04T08:41:52.129Z,992.85
2019-06-04T08:42:54.270Z,992.87
2019-06-04T08:43:52.109Z,992.87
2019-06-04T08:44:59.528Z,992.88
2019-06-04T08:45:53.116Z,992.84
2019-06-04T08:46:52.115Z,992.83
2019-06-04T08:47:52.163Z,992.81
2019-06-04T08:48:52.054Z,992.75
2019-06-04T08:49:52.042Z,992.70
2019-06-04T08:50:52.033Z,992.64
2019-06-04T08:51:52.065Z,992.60
2019-06-04T08:52:52.019Z,992.59
2019-06-04T08:53:52.008Z,992.61
2019-06-04T08:54:51.990Z,992.61
2019-06-04T08:55:52.010Z,992.64
2019-06-04T08:56:51.968Z,992.63
2019-06-04T08:57:52.044Z,992.63
2019-06-04T08:58:51.947Z,992.58
2019-06-04T08:59:51.947Z,992.59
2019-06-04T09:00:51.921Z,992.56
2019-06-04T09:01:51.911Z,992.53
2019-06-04T09:02:51.900Z,992.52
2019-06-04T09:03:51.955Z,992.48
2019-06-04T09:04:51.890Z,992.52
2019-06-04T09:05:51.881Z,992.50
2019-06-04T09:06:51.872Z,992.48
2019-06-04T09:07:51.849Z,992.46
2019-06-04T09:08:51.852Z,992.46
2019-06-04T09:09:53.642Z,992.39
2019-06-04T09:10:51.815Z,992.36
2019-06-04T09:11:51.995Z,992.38
2019-06-04T09:12:51.793Z,992.34
2019-06-04T09:13:51.786Z,992.31
2019-06-04T09:14:51.769Z,992.29
2019-06-04T09:15:55.762Z,992.30
2019-06-04T09:16:51.910Z,992.27
2019-06-04T09:17:53.766Z,992.30
2019-06-04T09:18:51.760Z,992.33
2019-06-04T09:19:51.761Z,992.29
2019-06-04T09:20:51.708Z,992.27
2019-06-04T09:21:52.156Z,992.24
2019-06-04T09:22:51.685Z,992.26
2019-06-04T09:23:51.827Z,992.22
2019-06-04T09:24:53.763Z,992.27
2019-06-04T09:25:51.652Z,992.30
2019-06-04T09:27:02.704Z,992.31
2019-06-04T09:27:52.833Z,992.31
2019-06-04T09:28:51.620Z,992.30
2019-06-04T09:29:51.637Z,992.21
2019-06-04T09:31:02.426Z,992.23
2019-06-04T09:31:52.596Z,992.22
2019-06-04T09:32:51.577Z,992.22
2019-06-04T09:33:51.634Z,992.20
2019-06-04T09:34:51.555Z,992.16
2019-06-04T09:35:51.543Z,992.15
2019-06-04T09:36:51.531Z,992.12
2019-06-04T09:38:02.497Z,992.09
2019-06-04T09:38:52.543Z,992.11
2019-06-04T09:39:53.543Z,992.12
2019-06-04T09:40:52.166Z,992.13
2019-06-04T09:41:51.479Z,992.11
2019-06-04T09:42:51.529Z,992.08
2019-06-04T09:43:51.469Z,992.09
2019-06-04T09:44:51.491Z,992.03
2019-06-04T09:45:51.454Z,992.04
2019-06-04T09:46:52.852Z,991.97
2019-06-04T09:47:51.995Z,991.97
2019-06-04T09:48:52.115Z,991.93
2019-06-04T09:49:54.182Z,991.88
2019-06-04T09:50:58.695Z,991.92
2019-06-04T09:51:52.381Z,991.92
2019-06-04T09:52:53.478Z,991.93
2019-06-04T09:53:51.345Z,991.89
2019-06-04T09:54:51.347Z,991.88
2019-06-04T09:55:51.660Z,991.88
2019-06-04T09:56:52.172Z,991.85
2019-06-04T09:58:26.128Z,991.82
2019-06-04T09:58:52.294Z,991.79
2019-06-04T09:59:51.455Z,991.74
2019-06-04T10:00:52.717Z,991.75
2019-06-04T10:01:53.590Z,991.73
2019-06-04T10:02:57.080Z,991.75
2019-06-04T10:03:52.236Z,991.71
2019-06-04T10:04:54.588Z,991.63
2019-06-04T10:05:51.973Z,991.69
2019-06-04T10:06:51.944Z,991.66
2019-06-04T10:08:10.833Z,991.61
2019-06-04T10:08:52.726Z,991.60
2019-06-04T10:09:52.478Z,991.58
2019-06-04T10:10:52.848Z,991.59
2019-06-04T10:11:52.484Z,991.60
2019-06-04T10:12:51.142Z,991.49
2019-06-04T10:13:51.140Z,991.54
2019-06-04T10:14:51.177Z,991.51
2019-06-04T10:15:51.383Z,991.52
2019-06-04T10:16:51.322Z,991.51
2019-06-04T10:17:51.354Z,991.55
2019-06-04T10:18:51.511Z,991.50
2019-06-04T10:19:51.864Z,991.52
2019-06-04T10:20:51.839Z,991.49
2019-06-04T10:21:51.999Z,991.45
2019-06-04T10:22:52.189Z,991.47
2019-06-04T10:23:51.022Z,991.43
2019-06-04T10:24:54.569Z,991.44
2019-06-04T10:25:52.444Z,991.44
2019-06-04T10:26:54.417Z,991.43
2019-06-04T10:27:52.352Z,991.35
2019-06-04T10:28:59.762Z,991.34
2019-06-04T10:29:52.282Z,991.31
2019-06-04T10:30:53.227Z,991.31
2019-06-04T10:31:50.967Z,991.29
2019-06-04T10:32:50.926Z,991.24
2019-06-04T10:33:50.923Z,991.21
2019-06-04T10:34:53.369Z,991.16
2019-06-04T10:35:53.474Z,991.21
2019-06-04T10:37:14.592Z,991.23
2019-06-04T10:37:52.893Z,991.26
2019-06-04T10:38:50.936Z,991.25
2019-06-04T10:39:51.246Z,991.26
2019-06-04T10:40:52.507Z,991.20
2019-06-04T10:41:51.392Z,991.20
2019-06-04T10:42:51.686Z,991.23
2019-06-04T10:43:51.500Z,991.20
2019-06-04T10:44:52.420Z,991.17
2019-06-04T10:45:51.575Z,991.18
2019-06-04T10:46:51.848Z,991.14
2019-06-04T10:47:52.899Z,991.18
2019-06-04T10:48:52.099Z,991.07
2019-06-04T10:49:50.823Z,991.08
2019-06-04T10:50:51.350Z,991.13
2019-06-04T10:51:51.771Z,991.08
2019-06-04T10:52:52.980Z,991.07
2019-06-04T10:53:51.600Z,991.02
2019-06-04T10:54:51.527Z,990.99
2019-06-04T10:55:52.018Z,990.98
2019-06-04T10:56:51.763Z,990.94
2019-06-04T10:57:51.585Z,990.93
2019-06-04T10:58:52.004Z,990.91
2019-06-04T10:59:52.826Z,990.88
2019-06-04T11:00:53.011Z,990.89
2019-06-04T11:01:51.965Z,990.83
2019-06-04T11:02:51.841Z,990.86
2019-06-04T11:03:51.599Z,990.83
2019-06-04T11:04:50.578Z,990.84
2019-06-04T11:05:50.744Z,990.81
2019-06-04T11:06:50.556Z,990.75
2019-06-04T11:07:50.590Z,990.71
2019-06-04T11:09:01.793Z,990.71
2019-06-04T11:09:52.225Z,990.74
2019-06-04T11:10:51.964Z,990.68
2019-06-04T11:11:50.693Z,990.64
2019-06-04T11:12:51.760Z,990.57
2019-06-04T11:13:50.789Z,990.62
2019-06-04T11:14:51.741Z,990.63
2019-06-04T11:15:51.362Z,990.61
2019-06-04T11:16:50.450Z,990.63
2019-06-04T11:17:51.465Z,990.64
2019-06-04T11:18:50.428Z,990.67
2019-06-04T11:19:51.257Z,990.62
2019-06-04T11:20:50.466Z,990.62
2019-06-04T11:21:50.530Z,990.53
2019-06-04T11:22:50.510Z,990.51
2019-06-04T11:23:50.832Z,990.46
2019-06-04T11:24:50.598Z,990.40
2019-06-04T11:25:51.552Z,990.35
2019-06-04T11:26:50.812Z,990.28
2019-06-04T11:27:50.975Z,990.26
2019-06-04T11:28:51.184Z,990.32
2019-06-04T11:29:51.172Z,990.28
2019-06-04T11:30:51.821Z,990.22
2019-06-04T11:31:51.378Z,990.21
2019-06-04T11:32:51.513Z,990.15
2019-06-04T11:33:51.823Z,990.16
2019-06-04T11:34:51.586Z,990.12
2019-06-04T11:35:51.013Z,990.09
2019-06-04T11:36:50.247Z,990.04
2019-06-04T11:37:50.501Z,989.96
2019-06-04T11:39:11.476Z,989.95
2019-06-04T11:39:52.364Z,989.97
2019-06-04T11:40:51.132Z,989.93
2019-06-04T11:41:50.418Z,989.91
2019-06-04T11:42:54.038Z,989.86
2019-06-04T11:43:51.204Z,989.90
2019-06-04T11:44:57.356Z,989.86
2019-06-04T11:45:51.159Z,989.93
2019-06-04T11:46:50.991Z,989.85
2019-06-04T11:47:51.012Z,989.88
2019-06-04T11:48:51.317Z,989.86
2019-06-04T11:49:51.895Z,989.87
2019-06-04T11:50:51.309Z,989.83
2019-06-04T11:51:51.092Z,989.78
2019-06-04T11:52:51.392Z,989.77
2019-06-04T11:53:51.383Z,989.70
2019-06-04T11:54:52.106Z,989.66
2019-06-04T11:55:52.185Z,989.66
2019-06-04T11:56:51.247Z,989.63
2019-06-04T11:57:52.246Z,989.57
2019-06-04T11:58:50.016Z,989.60
2019-06-04T11:59:50.017Z,989.60
2019-06-04T12:00:50.008Z,989.61
2019-06-04T12:01:50.040Z,989.62
2019-06-04T12:02:50.044Z,989.59
2019-06-04T12:03:49.969Z,989.61
2019-06-04T12:04:49.967Z,989.58
2019-06-04T12:05:49.991Z,989.60
2019-06-04T12:06:49.935Z,989.62
2019-06-04T12:07:49.983Z,989.66
2019-06-04T12:08:49.914Z,989.60
2019-06-04T12:09:49.925Z,989.57
2019-06-04T12:10:49.961Z,989.55
2019-06-04T12:12:14.732Z,989.58
2019-06-04T12:12:50.905Z,989.48
2019-06-04T12:13:49.860Z,989.50
2019-06-04T12:14:49.853Z,989.52
2019-06-04T12:15:49.847Z,989.46
2019-06-04T12:16:49.835Z,989.48
2019-06-04T12:17:49.851Z,989.36
2019-06-04T12:18:49.865Z,989.36
2019-06-04T12:19:49.805Z,989.42
2019-06-04T12:20:49.821Z,989.33
2019-06-04T12:21:49.791Z,989.28
2019-06-04T12:23:24.784Z,989.26
2019-06-04T12:23:50.843Z,989.20
2019-06-04T12:24:49.766Z,989.21
2019-06-04T12:25:49.743Z,989.21
2019-06-04T12:26:49.734Z,989.12
2019-06-04T12:27:49.721Z,989.13
2019-06-04T12:28:49.712Z,989.14